Time;durP1;ratioP1;P1;durP2;ratioP2;P2;SDS_P1;SDS_P2;PMS_P1;PMS_P2;Temp;Humidity;BMP_temperature;BMP_pressure;BME280_temperature;BME280_humidity;BME280_pressure;Samples;Min_cycle;Max_cycle;Signal;HPM_P1;HPM_P2
2023/05/22 00:00:35;;;;;;;4.23;3.83;;;20.90;68.10;;;;;;5076645;28;20454;-68
2023/05/22 00:03:03;;;;;;;4.13;3.83;;;20.80;68.20;;;;;;5075331;28;20454;-68
2023/05/22 00:05:37;;;;;;;3.87;3.57;;;20.80;67.70;;;;;;5076500;28;20458;-68
2023/05/22 00:08:05;;;;;;;5.30;4.37;;;20.80;68.10;;;;;;5076346;28;20442;-67
2023/05/22 00:10:32;;;;;;;5.83;4.07;;;20.70;68.30;;;;;;5076206;28;20454;-67
2023/05/22 00:12:58;;;;;;;4.30;3.80;;;20.70;68.40;;;;;;5076359;28;20565;-68
2023/05/22 00:15:25;;;;;;;4.03;3.50;;;20.70;68.70;;;;;;5076112;28;20457;-69
2023/05/22 00:17:53;;;;;;;6.93;3.90;;;20.70;69.30;;;;;;5076357;28;20454;-67
2023/05/22 00:20:20;;;;;;;4.20;3.57;;;20.70;69.20;;;;;;5076267;28;20454;-68
2023/05/22 00:22:48;;;;;;;3.77;3.47;;;20.70;69.40;;;;;;5076269;28;20731;-67
2023/05/22 00:25:19;;;;;;;5.40;4.10;;;20.60;69.50;;;;;;5075878;28;20504;-67
2023/05/22 00:27:47;;;;;;;4.10;3.80;;;20.60;69.40;;;;;;5076075;28;20526;-68
2023/05/22 00:30:14;;;;;;;6.90;3.60;;;20.60;70.20;;;;;;5076063;28;20468;-68
2023/05/22 00:32:41;;;;;;;3.90;3.57;;;20.60;69.90;;;;;;5076051;28;20824;-68
2023/05/22 00:35:10;;;;;;;4.60;3.73;;;20.60;69.70;;;;;;5075752;28;20485;-67
2023/05/22 00:37:36;;;;;;;6.70;3.70;;;20.50;69.40;;;;;;5075934;28;20454;-68
2023/05/22 00:40:04;;;;;;;4.77;3.80;;;20.50;69.80;;;;;;5075491;28;20815;-68
2023/05/22 00:42:31;;;;;;;5.30;4.17;;;20.50;69.50;;;;;;5075401;28;20918;-68
2023/05/22 00:44:58;;;;;;;3.90;3.60;;;20.50;69.70;;;;;;5075623;28;20454;-68
2023/05/22 00:47:25;;;;;;;7.37;3.97;;;20.50;69.90;;;;;;5075698;28;20535;-69
2023/05/22 00:49:53;;;;;;;4.57;3.60;;;20.40;69.70;;;;;;5075718;28;20454;-68
2023/05/22 00:52:21;;;;;;;5.97;3.67;;;20.40;69.80;;;;;;5075482;28;20572;-67
2023/05/22 00:54:50;;;;;;;6.00;3.60;;;20.40;69.70;;;;;;5075677;28;20453;-68
2023/05/22 00:57:18;;;;;;;4.90;3.90;;;20.30;69.60;;;;;;5075608;28;20779;-68
2023/05/22 00:59:45;;;;;;;4.20;3.77;;;20.30;70.00;;;;;;5075558;28;20462;-68
2023/05/22 01:02:15;;;;;;;4.37;3.97;;;20.30;69.90;;;;;;5075114;28;20956;-68
2023/05/22 01:04:44;;;;;;;4.17;3.77;;;20.20;70.60;;;;;;5075371;28;20582;-68
2023/05/22 01:07:11;;;;;;;5.70;3.80;;;20.20;71.00;;;;;;5075403;28;20527;-68
2023/05/22 01:09:39;;;;;;;6.10;4.03;;;20.20;70.70;;;;;;5075154;28;20464;-68
2023/05/22 01:12:20;;;;;;;4.37;4.03;;;20.10;69.60;;;;;;5075185;28;20478;-68
2023/05/22 01:14:55;;;;;;;4.00;3.70;;;20.10;70.80;;;;;;5074984;28;20438;-68
2023/05/22 01:17:28;;;;;;;3.53;3.23;;;20.10;70.30;;;;;;5074994;28;20456;-68
2023/05/22 01:20:08;;;;;;;6.40;4.00;;;20.00;71.70;;;;;;5075034;28;20478;-69
2023/05/22 01:22:57;;;;;;;4.27;3.77;;;20.00;70.80;;;;;;5074737;28;20434;-68
2023/05/22 01:25:56;;;;;;;5.30;4.10;;;20.00;71.00;;;;;;5075120;28;20758;-68
2023/05/22 01:28:44;;;;;;;6.80;4.23;;;19.90;71.20;;;;;;5075156;28;20435;-68
2023/05/22 01:31:17;;;;;;;4.90;3.87;;;19.90;71.30;;;;;;5075082;28;20449;-68
2023/05/22 01:33:46;;;;;;;4.97;4.03;;;19.80;71.80;;;;;;5074823;28;20466;-68
2023/05/22 01:36:18;;;;;;;4.67;4.27;;;19.80;72.50;;;;;;5074468;28;20541;-68
2023/05/22 01:38:46;;;;;;;4.37;3.97;;;19.80;72.40;;;;;;5074235;28;20521;-66
2023/05/22 01:41:14;;;;;;;4.40;3.70;;;19.80;72.60;;;;;;5074527;28;20454;-68
2023/05/22 01:43:42;;;;;;;4.80;3.80;;;19.70;73.10;;;;;;5074331;28;20450;-67
2023/05/22 01:46:09;;;;;;;5.40;3.83;;;19.70;73.50;;;;;;5074279;28;20454;-68
2023/05/22 01:48:37;;;;;;;3.90;3.50;;;19.60;73.90;;;;;;5074238;28;20939;-67
2023/05/22 01:51:11;;;;;;;7.57;4.23;;;19.60;75.10;;;;;;5074551;28;20790;-67
2023/05/22 01:53:43;;;;;;;5.17;3.40;;;19.60;74.70;;;;;;5074521;28;20476;-68
2023/05/22 01:56:15;;;;;;;4.50;4.10;;;19.50;74.90;;;;;;5074277;28;20880;-68
2023/05/22 01:58:49;;;;;;;5.73;4.13;;;19.50;75.60;;;;;;5074098;28;20439;-68
2023/05/22 02:01:19;;;;;;;6.03;4.20;;;19.50;75.80;;;;;;5074666;28;20453;-68
2023/05/22 02:03:55;;;;;;;4.97;3.77;;;19.40;75.90;;;;;;5074395;28;20461;-68
2023/05/22 02:06:24;;;;;;;4.23;3.63;;;19.30;76.10;;;;;;5074291;28;20522;-68
2023/05/22 02:08:53;;;;;;;4.67;4.20;;;19.30;76.70;;;;;;5074435;28;20780;-67
2023/05/22 02:11:22;;;;;;;4.63;4.23;;;19.30;77.10;;;;;;5074126;28;20937;-68
2023/05/22 02:13:50;;;;;;;4.43;3.70;;;19.20;77.00;;;;;;5074335;28;20492;-68
2023/05/22 02:16:20;;;;;;;4.00;3.60;;;19.20;77.40;;;;;;5073978;28;20511;-67
2023/05/22 02:18:48;;;;;;;5.33;3.47;;;19.20;77.40;;;;;;5074193;28;20533;-68
2023/05/22 02:21:15;;;;;;;11.20;4.23;;;19.10;77.70;;;;;;5074603;28;20559;-67
2023/05/22 02:23:42;;;;;;;6.30;4.33;;;19.10;78.10;;;;;;5074310;28;20828;-68
2023/05/22 02:26:09;;;;;;;4.40;3.60;;;19.00;77.80;;;;;;5076688;28;20500;-68
2023/05/22 02:28:36;;;;;;;5.47;4.07;;;19.00;78.20;;;;;;5077942;28;20541;-67
2023/05/22 02:31:03;;;;;;;5.60;3.93;;;19.00;78.30;;;;;;5078091;28;20466;-68
2023/05/22 02:33:30;;;;;;;6.17;3.80;;;19.00;78.50;;;;;;5078338;28;20477;-68
2023/05/22 02:35:58;;;;;;;5.60;4.07;;;18.90;79.70;;;;;;5077953;28;20454;-68
2023/05/22 02:38:25;;;;;;;4.70;4.10;;;18.90;79.20;;;;;;5077997;28;20478;-68
2023/05/22 02:40:52;;;;;;;4.23;3.87;;;18.80;79.50;;;;;;5078063;28;20453;-67
2023/05/22 02:43:18;;;;;;;3.97;3.63;;;18.80;80.00;;;;;;5078564;28;20460;-68
2023/05/22 02:45:45;;;;;;;4.50;3.60;;;18.80;81.40;;;;;;5078116;28;20779;-68
2023/05/22 02:48:12;;;;;;;6.93;4.50;;;18.70;80.90;;;;;;5077722;28;20464;-67
2023/05/22 02:50:39;;;;;;;4.40;4.00;;;18.70;80.90;;;;;;5078140;28;20450;-68
2023/05/22 02:53:08;;;;;;;4.97;4.50;;;18.70;81.20;;;;;;5077458;28;21038;-68
2023/05/22 02:55:35;;;;;;;4.50;3.87;;;18.70;82.00;;;;;;5077834;28;20450;-67
2023/05/22 02:58:02;;;;;;;4.97;3.77;;;18.60;82.10;;;;;;5077912;28;20468;-67
2023/05/22 03:00:30;;;;;;;4.30;3.90;;;18.60;82.20;;;;;;5077481;28;20544;-67
2023/05/22 03:02:56;;;;;;;4.53;3.87;;;18.60;82.50;;;;;;5077615;28;20536;-68
2023/05/22 03:05:23;;;;;;;5.23;4.50;;;18.60;82.90;;;;;;5077304;28;20901;-67
2023/05/22 03:07:51;;;;;;;5.10;4.60;;;18.50;83.50;;;;;;5077551;28;20570;-67
2023/05/22 03:10:20;;;;;;;5.70;3.57;;;18.50;83.90;;;;;;5077815;28;20465;-67
2023/05/22 03:12:46;;;;;;;4.50;4.10;;;18.50;84.70;;;;;;5077002;28;20474;-68
2023/05/22 03:15:13;;;;;;;4.77;4.27;;;18.50;86.10;;;;;;5077572;28;20458;-68
2023/05/22 03:17:40;;;;;;;4.70;4.30;;;18.50;85.70;;;;;;5077556;28;20786;-68
2023/05/22 03:20:08;;;;;;;4.60;4.00;;;18.40;86.00;;;;;;5077078;28;20464;-68
2023/05/22 03:22:35;;;;;;;4.23;3.93;;;18.40;86.80;;;;;;5077268;28;20826;-67
2023/05/22 03:25:02;;;;;;;4.37;3.93;;;18.40;87.60;;;;;;5076984;28;20467;-67
2023/05/22 03:27:30;;;;;;;4.50;3.80;;;18.40;88.10;;;;;;5077219;28;20458;-67
2023/05/22 03:29:57;;;;;;;6.00;4.10;;;18.40;88.50;;;;;;5076917;28;20926;-67
2023/05/22 03:32:24;;;;;;;4.57;4.17;;;18.40;89.30;;;;;;5077327;28;20510;-68
2023/05/22 03:34:51;;;;;;;5.60;4.20;;;18.30;89.70;;;;;;5076763;28;20515;-68
2023/05/22 03:37:18;;;;;;;7.70;4.87;;;18.30;90.00;;;;;;5076766;28;20454;-68
2023/05/22 03:39:45;;;;;;;4.67;4.17;;;18.30;90.20;;;;;;5076662;28;21004;-68
2023/05/22 03:42:12;;;;;;;10.90;4.00;;;18.30;90.60;;;;;;5076865;28;20557;-68
2023/05/22 03:44:40;;;;;;;9.80;4.60;;;18.30;91.00;;;;;;5077214;28;20488;-68
2023/05/22 03:47:07;;;;;;;8.00;4.33;;;18.30;91.40;;;;;;5077205;28;20913;-68
2023/05/22 03:49:34;;;;;;;6.07;4.50;;;18.20;91.70;;;;;;5076766;28;20546;-68
2023/05/22 03:52:01;;;;;;;6.30;4.33;;;18.20;92.10;;;;;;5076839;28;20468;-68
2023/05/22 03:54:27;;;;;;;6.53;4.40;;;18.20;92.60;;;;;;5076537;28;20958;-68
2023/05/22 03:56:54;;;;;;;4.37;4.00;;;18.20;93.00;;;;;;5076723;28;20454;-68
2023/05/22 03:59:22;;;;;;;5.77;4.17;;;18.20;93.40;;;;;;5076250;28;20464;-68
2023/05/22 04:01:50;;;;;;;4.87;4.37;;;18.20;94.00;;;;;;5076365;28;20465;-68
2023/05/22 04:04:17;;;;;;;4.70;4.30;;;18.20;94.40;;;;;;5076424;28;20450;-68
2023/05/22 04:06:43;;;;;;;4.90;4.40;;;18.20;94.50;;;;;;5076050;28;20935;-68
2023/05/22 04:09:11;;;;;;;5.30;4.80;;;18.20;95.20;;;;;;5076346;28;20458;-68
2023/05/22 04:11:39;;;;;;;8.03;4.63;;;18.20;95.70;;;;;;5075997;28;20454;-67
2023/05/22 04:14:06;;;;;;;6.07;4.37;;;18.20;96.30;;;;;;5076320;28;20478;-67
2023/05/22 04:16:33;;;;;;;5.60;5.10;;;18.20;96.80;;;;;;5076376;28;20458;-67
2023/05/22 04:19:02;;;;;;;6.87;4.10;;;18.20;96.90;;;;;;5076108;28;20461;-68
2023/05/22 04:21:29;;;;;;;4.93;4.43;;;18.20;97.30;;;;;;5076418;28;20541;-67
2023/05/22 04:23:55;;;;;;;8.83;4.77;;;18.20;97.90;;;;;;5075695;28;20486;-67
2023/05/22 04:26:23;;;;;;;6.70;4.70;;;18.20;98.30;;;;;;5076054;28;20493;-68
2023/05/22 04:28:50;;;;;;;7.50;4.37;;;18.20;98.70;;;;;;5075671;28;20494;-67
2023/05/22 04:31:17;;;;;;;5.63;4.50;;;18.20;99.50;;;;;;5075897;28;20454;-67
2023/05/22 04:33:47;;;;;;;6.43;4.60;;;18.20;99.80;;;;;;5075732;28;21008;-67
2023/05/22 04:36:16;;;;;;;8.93;4.00;;;18.20;99.90;;;;;;5076274;28;20469;-68
2023/05/22 04:38:43;;;;;;;5.13;4.30;;;18.30;99.90;;;;;;5075526;28;20826;-67
2023/05/22 04:41:12;;;;;;;7.37;5.27;;;18.40;99.90;;;;;;5075790;28;20523;-67
2023/05/22 04:43:39;;;;;;;5.17;4.67;;;18.40;99.90;;;;;;5075772;28;20446;-67
2023/05/22 04:46:07;;;;;;;11.10;4.80;;;18.40;99.90;;;;;;5075330;28;20568;-67
2023/05/22 04:48:34;;;;;;;6.03;4.37;;;18.50;99.90;;;;;;5074762;28;20902;-67
2023/05/22 04:51:02;;;;;;;4.83;4.40;;;18.50;99.90;;;;;;5075544;28;20462;-67
2023/05/22 04:53:32;;;;;;;6.30;4.60;;;18.50;99.90;;;;;;5075603;28;20495;-67
2023/05/22 04:55:59;;;;;;;5.17;4.67;;;18.50;99.90;;;;;;5075832;28;20465;-68
2023/05/22 04:58:27;;;;;;;7.70;4.97;;;18.60;99.90;;;;;;5075582;28;20468;-67
2023/05/22 05:00:56;;;;;;;5.40;4.90;;;18.60;99.90;;;;;;5075408;28;20473;-67
2023/05/22 05:03:24;;;;;;;9.43;4.37;;;18.60;99.90;;;;;;5075304;28;20458;-68
2023/05/22 05:05:51;;;;;;;7.23;6.00;;;18.70;99.90;;;;;;5075348;28;20519;-67
2023/05/22 05:08:18;;;;;;;4.93;4.33;;;18.70;99.90;;;;;;5075310;28;20458;-68
2023/05/22 05:10:46;;;;;;;4.83;4.43;;;18.60;99.90;;;;;;5075237;28;20464;-67
2023/05/22 05:13:13;;;;;;;5.43;4.73;;;18.70;99.90;;;;;;5074740;28;20485;-68
2023/05/22 05:15:40;;;;;;;5.00;4.60;;;18.70;99.90;;;;;;5075272;28;20875;-67
2023/05/22 05:18:06;;;;;;;5.20;4.70;;;18.70;99.90;;;;;;5075035;28;20451;-67
2023/05/22 05:20:33;;;;;;;5.37;4.70;;;18.70;99.90;;;;;;5074816;28;20458;-67
2023/05/22 05:23:00;;;;;;;6.63;5.00;;;18.60;99.90;;;;;;5075255;28;20454;-67
2023/05/22 05:25:27;;;;;;;5.60;4.70;;;18.70;99.90;;;;;;5074511;28;20464;-68
2023/05/22 05:27:56;;;;;;;6.23;5.30;;;18.70;99.90;;;;;;5074826;28;20458;-67
2023/05/22 05:30:23;;;;;;;6.43;5.00;;;18.60;99.90;;;;;;5074715;28;20469;-67
2023/05/22 05:32:50;;;;;;;6.27;5.30;;;18.70;99.90;;;;;;5074836;28;20541;-67
2023/05/22 05:35:16;;;;;;;7.33;4.73;;;18.60;99.90;;;;;;5075234;28;20459;-67
2023/05/22 05:37:43;;;;;;;6.80;5.03;;;18.70;99.90;;;;;;5074567;28;20804;-67
2023/05/22 05:40:11;;;;;;;6.00;5.40;;;18.60;99.90;;;;;;5074732;28;20450;-67
2023/05/22 05:42:38;;;;;;;6.60;4.83;;;18.60;99.90;;;;;;5074357;28;20766;-67
2023/05/22 05:45:07;;;;;;;6.20;4.70;;;18.70;99.90;;;;;;5074705;28;20446;-67
2023/05/22 05:47:34;;;;;;;6.53;5.07;;;18.60;99.90;;;;;;5074594;28;20451;-67
2023/05/22 05:50:01;;;;;;;6.90;4.50;;;18.60;99.90;;;;;;5074231;28;20464;-67
2023/05/22 05:52:31;;;;;;;4.70;4.30;;;18.70;99.90;;;;;;5074652;28;20456;-67
2023/05/22 05:54:59;;;;;;;6.00;4.97;;;18.70;99.90;;;;;;5074461;28;20466;-68
2023/05/22 05:57:26;;;;;;;5.30;4.90;;;18.80;99.90;;;;;;5074535;28;20486;-68
2023/05/22 05:59:53;;;;;;;5.63;5.13;;;18.80;99.90;;;;;;5073246;28;20466;-68
2023/05/22 06:02:21;;;;;;;10.53;8.20;;;18.90;99.90;;;;;;5074718;28;20454;-66
2023/05/22 06:04:48;;;;;;;9.70;8.80;;;18.90;99.90;;;;;;5074448;28;20451;-68
2023/05/22 06:07:15;;;;;;;69.17;48.63;;;19.00;99.90;;;;;;5074153;28;20457;-68
2023/05/22 06:09:42;;;;;;;10.17;7.53;;;19.00;99.90;;;;;;5074518;28;20458;-67
2023/05/22 06:12:11;;;;;;;9.90;9.00;;;19.10;99.90;;;;;;5074445;28;20458;-67
2023/05/22 06:14:39;;;;;;;9.80;6.37;;;19.20;99.90;;;;;;5073949;28;20581;-67
2023/05/22 06:17:07;;;;;;;11.53;6.90;;;19.30;99.90;;;;;;5074740;28;20766;-68
2023/05/22 06:19:36;;;;;;;7.10;6.00;;;19.30;99.90;;;;;;5074444;28;20478;-68
2023/05/22 06:22:02;;;;;;;13.23;4.97;;;19.40;99.90;;;;;;5074402;28;20826;-68
2023/05/22 06:24:31;;;;;;;7.40;6.33;;;19.50;99.90;;;;;;5074357;28;20451;-68
2023/05/22 06:26:58;;;;;;;16.90;7.97;;;19.60;99.90;;;;;;5074564;28;20464;-68
2023/05/22 06:29:25;;;;;;;24.13;9.63;;;19.60;99.90;;;;;;5074606;28;20534;-67
2023/05/22 06:31:52;;;;;;;27.70;8.03;;;19.70;99.90;;;;;;5074634;28;20505;-68
2023/05/22 06:34:20;;;;;;;14.37;9.10;;;19.70;99.90;;;;;;5074228;28;20488;-68
2023/05/22 06:36:50;;;;;;;35.50;8.07;;;19.80;99.90;;;;;;5074539;28;20454;-68
2023/05/22 06:39:17;;;;;;;15.03;5.83;;;19.90;99.90;;;;;;5074804;28;20478;-67
2023/05/22 06:41:44;;;;;;;20.70;7.43;;;19.90;99.90;;;;;;5074782;28;20481;-67
2023/05/22 06:44:11;;;;;;;7.27;6.57;;;20.00;99.90;;;;;;5074282;28;20450;-68
2023/05/22 06:46:38;;;;;;;9.63;6.37;;;20.00;99.90;;;;;;5074290;28;20950;-68
2023/05/22 06:49:05;;;;;;;5.87;5.27;;;20.10;99.90;;;;;;5074155;28;20773;-66
2023/05/22 06:51:32;;;;;;;11.90;7.60;;;20.20;99.90;;;;;;5073784;28;20545;-67
2023/05/22 06:54:03;;;;;;;9.53;6.93;;;20.20;99.90;;;;;;5073879;28;20561;-68
2023/05/22 06:56:30;;;;;;;9.93;6.20;;;20.30;99.90;;;;;;5074699;28;20480;-68
2023/05/22 06:58:57;;;;;;;5.90;5.33;;;20.40;99.90;;;;;;5074065;28;20454;-68
2023/05/22 07:01:24;;;;;;;12.60;6.07;;;20.50;99.90;;;;;;5074235;28;20453;-68
2023/05/22 07:03:51;;;;;;;9.23;6.20;;;20.50;99.90;;;;;;5074359;28;20844;-68
2023/05/22 07:06:18;;;;;;;8.53;6.30;;;20.60;99.90;;;;;;5074135;28;20561;-67
2023/05/22 07:08:44;;;;;;;10.63;6.17;;;20.70;99.90;;;;;;5073873;28;20454;-67
2023/05/22 07:11:12;;;;;;;17.30;6.60;;;20.80;99.90;;;;;;5075166;28;20752;-67
2023/05/22 07:13:39;;;;;;;11.33;6.23;;;20.80;99.90;;;;;;5077201;28;20473;-67
2023/05/22 07:16:06;;;;;;;7.37;5.60;;;20.90;99.90;;;;;;5077613;28;20460;-67
2023/05/22 07:18:33;;;;;;;6.60;5.97;;;20.90;99.90;;;;;;5077743;28;20488;-68
2023/05/22 07:21:00;;;;;;;5.53;4.93;;;21.00;99.90;;;;;;5077142;28;20527;-68
2023/05/22 07:23:27;;;;;;;7.27;5.50;;;21.10;99.90;;;;;;5077260;28;20523;-68
2023/05/22 07:25:57;;;;;;;7.57;6.40;;;21.10;99.90;;;;;;5077437;28;20537;-68
2023/05/22 07:28:25;;;;;;;11.30;7.97;;;21.10;99.90;;;;;;5077336;28;20468;-67
2023/05/22 07:30:52;;;;;;;6.53;5.90;;;21.20;99.90;;;;;;5077663;28;20549;-67
2023/05/22 07:33:19;;;;;;;9.73;7.17;;;21.20;99.90;;;;;;5077001;28;20785;-66
2023/05/22 07:35:45;;;;;;;6.87;6.13;;;21.30;99.90;;;;;;5076718;28;20458;-67
2023/05/22 07:38:12;;;;;;;6.77;5.67;;;21.30;99.90;;;;;;5077005;28;20498;-67
2023/05/22 07:40:39;;;;;;;5.33;4.83;;;21.30;99.90;;;;;;5077279;28;20530;-67
2023/05/22 07:43:06;;;;;;;6.53;5.00;;;21.40;99.90;;;;;;5076958;28;20486;-66
2023/05/22 07:45:34;;;;;;;12.87;5.40;;;21.40;99.90;;;;;;5076988;28;20527;-68
2023/05/22 07:48:03;;;;;;;6.37;5.03;;;21.40;99.90;;;;;;5076929;28;20755;-68
2023/05/22 07:50:31;;;;;;;11.87;5.23;;;21.40;99.90;;;;;;5076901;28;20548;-67
2023/05/22 07:52:58;;;;;;;4.77;4.30;;;21.50;99.90;;;;;;5076858;28;20465;-67
2023/05/22 07:55:25;;;;;;;6.07;5.43;;;21.60;99.90;;;;;;5076466;28;20474;-68
2023/05/22 07:57:52;;;;;;;5.67;5.20;;;21.70;99.90;;;;;;5076733;28;20454;-68
2023/05/22 08:00:20;;;;;;;7.20;5.73;;;21.70;99.90;;;;;;5076313;28;20454;-68
2023/05/22 08:02:48;;;;;;;6.23;5.23;;;21.80;99.90;;;;;;5076479;28;20796;-68
2023/05/22 08:05:15;;;;;;;6.33;4.70;;;21.90;99.90;;;;;;5076728;28;20540;-67
2023/05/22 08:07:42;;;;;;;7.23;5.53;;;21.90;99.90;;;;;;5076306;28;20454;-68
2023/05/22 08:10:14;;;;;;;7.50;5.60;;;21.90;99.90;;;;;;5076350;28;20860;-67
2023/05/22 08:12:41;;;;;;;6.70;5.30;;;22.00;99.90;;;;;;5076451;28;20449;-67
2023/05/22 08:15:09;;;;;;;7.30;5.07;;;22.10;99.90;;;;;;5076114;28;20984;-67
2023/05/22 08:17:35;;;;;;;7.83;5.60;;;22.20;99.90;;;;;;5076720;28;20482;-67
2023/05/22 08:20:05;;;;;;;10.87;5.20;;;22.30;99.90;;;;;;5076269;28;20539;-67
2023/05/22 08:22:33;;;;;;;11.30;5.70;;;22.50;99.90;;;;;;5075017;28;20458;-67
2023/05/22 08:24:59;;;;;;;6.27;5.60;;;22.60;99.90;;;;;;5076083;28;20475;-67
2023/05/22 08:27:26;;;;;;;6.87;4.87;;;22.70;99.90;;;;;;5075642;28;20946;-67
2023/05/22 08:29:53;;;;;;;9.97;8.97;;;22.90;99.90;;;;;;5075891;28;20468;-67
2023/05/22 08:32:20;;;;;;;7.70;4.90;;;23.00;99.90;;;;;;5075499;28;20493;-67
2023/05/22 08:34:47;;;;;;;6.77;4.40;;;23.10;99.90;;;;;;5076317;28;20781;-68
2023/05/22 08:37:15;;;;;;;7.73;4.67;;;23.20;99.90;;;;;;5075991;28;20549;-68
2023/05/22 08:39:42;;;;;;;8.13;3.90;;;23.30;99.90;;;;;;5075901;28;20489;-68
2023/05/22 08:42:09;;;;;;;6.60;4.03;;;23.40;98.80;;;;;;5075639;28;20535;-68
2023/05/22 08:44:36;;;;;;;5.33;4.83;;;23.50;98.20;;;;;;5075893;28;20457;-67
2023/05/22 08:47:08;;;;;;;8.03;4.17;;;23.50;98.20;;;;;;5075801;28;20527;-67
2023/05/22 08:49:35;;;;;;;5.67;4.20;;;23.60;97.70;;;;;;5076129;28;20442;-68
2023/05/22 08:52:07;;;;;;;7.03;5.20;;;23.70;97.20;;;;;;5075841;28;20591;-68
2023/05/22 08:54:40;;;;;;;7.13;4.53;;;23.80;97.50;;;;;;5075550;28;20476;-68
2023/05/22 08:57:07;;;;;;;15.03;6.03;;;23.80;97.20;;;;;;5075734;28;20466;-67
2023/05/22 08:59:35;;;;;;;19.70;5.60;;;24.00;97.10;;;;;;5075653;28;20845;-67
2023/05/22 09:02:05;;;;;;;40.63;7.70;;;24.20;96.70;;;;;;5075715;28;20470;-69
2023/05/22 09:04:32;;;;;;;10.10;6.77;;;24.20;96.20;;;;;;5075158;28;20461;-68
2023/05/22 09:07:04;;;;;;;6.60;5.00;;;24.30;95.70;;;;;;5075452;28;20464;-67
2023/05/22 09:09:32;;;;;;;7.93;4.97;;;24.50;95.20;;;;;;5075286;28;20439;-67
2023/05/22 09:12:04;;;;;;;11.30;4.30;;;24.50;95.10;;;;;;5075302;28;20541;-68
2023/05/22 09:14:38;;;;;;;5.50;4.50;;;24.70;92.80;;;;;;5075190;28;20467;-67
2023/05/22 09:17:05;;;;;;;11.03;4.13;;;24.70;92.90;;;;;;5074949;28;20438;-68
2023/05/22 09:19:32;;;;;;;8.00;3.93;;;24.80;91.90;;;;;;5075061;28;20535;-68
2023/05/22 09:22:02;;;;;;;4.87;4.30;;;24.90;91.00;;;;;;5075248;28;20465;-68
2023/05/22 09:24:29;;;;;;;8.47;4.90;;;25.10;90.30;;;;;;5075105;28;20446;-67
2023/05/22 09:26:56;;;;;;;4.83;3.97;;;25.20;90.40;;;;;;5074812;28;20465;-67
2023/05/22 09:29:25;;;;;;;8.03;4.77;;;25.30;90.30;;;;;;5074604;28;20480;-68
2023/05/22 09:31:51;;;;;;;6.00;3.90;;;25.50;88.40;;;;;;5075195;28;20458;-68
2023/05/22 09:34:18;;;;;;;8.60;3.87;;;25.60;84.50;;;;;;5074941;28;20479;-68
2023/05/22 09:36:45;;;;;;;5.80;4.10;;;25.70;82.80;;;;;;5074762;28;20454;-68
2023/05/22 09:39:12;;;;;;;5.30;3.80;;;25.80;80.70;;;;;;5074806;28;20493;-68
2023/05/22 09:41:40;;;;;;;6.10;4.60;;;25.80;79.00;;;;;;5074579;28;20454;-67
2023/05/22 09:44:13;;;;;;;6.10;4.70;;;25.90;78.30;;;;;;5074357;28;20911;-67
2023/05/22 09:46:42;;;;;;;7.10;4.30;;;25.90;77.10;;;;;;5075096;28;20461;-68
2023/05/22 09:49:09;;;;;;;9.77;6.00;;;25.80;75.30;;;;;;5074819;28;20841;-67
2023/05/22 09:51:39;;;;;;;7.27;4.67;;;25.80;75.40;;;;;;5074952;28;20466;-67
2023/05/22 09:54:08;;;;;;;11.17;4.43;;;25.80;73.90;;;;;;5074698;28;20464;-67
2023/05/22 09:56:36;;;;;;;4.00;3.60;;;25.90;75.40;;;;;;5074522;28;20794;-68
2023/05/22 09:59:05;;;;;;;6.17;4.30;;;26.00;75.40;;;;;;5074680;28;20468;-68
2023/05/22 10:01:33;;;;;;;10.57;8.43;;;26.00;75.20;;;;;;5074501;28;20454;-68
2023/05/22 10:04:04;;;;;;;4.27;3.80;;;26.20;74.70;;;;;;5074543;28;20550;-68
2023/05/22 10:06:33;;;;;;;8.17;4.20;;;26.20;73.20;;;;;;5074854;28;20439;-68
2023/05/22 10:09:04;;;;;;;5.00;4.40;;;26.30;72.40;;;;;;5074613;28;20454;-67
2023/05/22 10:11:32;;;;;;;8.10;4.50;;;26.40;71.40;;;;;;5074472;28;20458;-67
2023/05/22 10:14:01;;;;;;;6.10;5.50;;;26.50;70.90;;;;;;5074333;28;20871;-68
2023/05/22 10:16:29;;;;;;;7.07;4.73;;;26.50;69.70;;;;;;5074269;28;20485;-69
2023/05/22 10:18:56;;;;;;;8.17;4.40;;;26.50;68.50;;;;;;5074441;28;20464;-68
2023/05/22 10:21:25;;;;;;;4.20;3.70;;;26.60;67.30;;;;;;5074089;28;20461;-68
2023/05/22 10:23:54;;;;;;;7.20;4.47;;;26.60;68.40;;;;;;5074162;28;20461;-67
2023/05/22 10:26:22;;;;;;;4.70;4.30;;;26.70;68.40;;;;;;5074081;28;20446;-68
2023/05/22 10:28:57;;;;;;;5.87;3.97;;;26.80;65.80;;;;;;5074106;28;20594;-68
2023/05/22 10:31:32;;;;;;;3.90;3.50;;;26.90;65.40;;;;;;5073888;28;20449;-68
2023/05/22 10:34:02;;;;;;;4.17;3.77;;;27.00;63.30;;;;;;5073960;28;20904;-68
2023/05/22 10:36:48;;;;;;;4.67;4.20;;;27.00;61.20;;;;;;5073621;28;20478;-67
2023/05/22 10:39:30;;;;;;;5.67;4.37;;;27.10;61.60;;;;;;5073581;28;20488;-68
2023/05/22 10:41:57;;;;;;;4.13;3.60;;;27.20;60.40;;;;;;5074224;28;20461;-68
2023/05/22 10:44:23;;;;;;;4.40;3.80;;;27.20;59.30;;;;;;5074056;28;20451;-68
2023/05/22 10:46:50;;;;;;;4.40;4.00;;;27.30;58.40;;;;;;5076459;28;20468;-68
2023/05/22 10:49:22;;;;;;;5.10;4.10;;;27.30;58.60;;;;;;5077780;28;20454;-69
2023/05/22 10:51:56;;;;;;;3.70;3.40;;;27.40;57.10;;;;;;5077687;28;20454;-67
2023/05/22 10:54:39;;;;;;;4.40;3.97;;;27.40;56.50;;;;;;5077543;28;20461;-69
2023/05/22 10:57:17;;;;;;;6.73;4.27;;;27.50;55.60;;;;;;5077806;28;20438;-69
2023/05/22 10:59:46;;;;;;;5.90;4.40;;;27.50;56.30;;;;;;5077504;28;20465;-67
2023/05/22 11:02:20;;;;;;;6.50;3.90;;;27.60;55.00;;;;;;5077374;28;20468;-68
2023/05/22 11:04:47;;;;;;;5.90;3.80;;;27.80;54.10;;;;;;5077863;28;20447;-68
2023/05/22 11:07:15;;;;;;;8.80;4.90;;;27.80;52.10;;;;;;5077612;28;20470;-68
2023/05/22 11:09:46;;;;;;;4.60;4.20;;;27.90;53.40;;;;;;5077463;28;20480;-68
2023/05/22 11:12:27;;;;;;;8.07;3.93;;;28.00;52.70;;;;;;5077259;28;20884;-68
2023/05/22 11:14:56;;;;;;;6.93;3.80;;;28.20;50.10;;;;;;5077369;28;20466;-69
2023/05/22 11:17:24;;;;;;;5.93;3.37;;;28.40;49.80;;;;;;5077767;28;20493;-68
2023/05/22 11:19:59;;;;;;;3.90;3.50;;;28.80;47.60;;;;;;5077112;28;20458;-68
2023/05/22 11:22:32;;;;;;;5.83;3.93;;;29.10;46.70;;;;;;5077004;28;20461;-68
2023/05/22 11:24:59;;;;;;;6.67;3.90;;;29.40;45.30;;;;;;5076876;28;20438;-68
2023/05/22 11:27:26;;;;;;;3.93;3.23;;;29.70;45.20;;;;;;5076746;28;20748;-67
2023/05/22 11:29:54;;;;;;;7.27;3.33;;;29.90;43.00;;;;;;5076623;28;20556;-67
2023/05/22 11:32:24;;;;;;;3.93;3.60;;;30.20;42.40;;;;;;5076773;28;20953;-68
2023/05/22 11:34:51;;;;;;;4.93;3.43;;;30.40;40.00;;;;;;5076580;28;20496;-67
2023/05/22 11:37:18;;;;;;;4.63;3.13;;;30.80;38.30;;;;;;5076627;28;20998;-67
2023/05/22 11:39:51;;;;;;;4.00;3.07;;;31.10;36.00;;;;;;5076577;28;20507;-68
2023/05/22 11:42:19;;;;;;;4.37;3.50;;;31.50;34.20;;;;;;5076630;28;20453;-67
2023/05/22 11:44:46;;;;;;;7.73;3.40;;;32.00;33.30;;;;;;5076609;28;20918;-68
2023/05/22 11:47:13;;;;;;;7.00;3.63;;;32.40;31.20;;;;;;5076513;28;20449;-68
2023/05/22 11:49:40;;;;;;;4.93;3.27;;;32.80;30.00;;;;;;5076370;28;20943;-68
2023/05/22 11:52:07;;;;;;;6.87;3.30;;;33.10;29.10;;;;;;5076621;28;20465;-68
2023/05/22 11:54:34;;;;;;;4.60;3.30;;;33.50;27.50;;;;;;5076974;28;20454;-68
2023/05/22 11:57:06;;;;;;;4.77;3.60;;;33.70;26.80;;;;;;5076249;28;20573;-68
2023/05/22 11:59:33;;;;;;;4.93;3.73;;;33.70;26.00;;;;;;5076634;28;20784;-68
2023/05/22 12:01:59;;;;;;;5.30;3.60;;;33.80;25.70;;;;;;5076380;28;20461;-68
2023/05/22 12:04:27;;;;;;;3.10;2.90;;;33.80;24.20;;;;;;5076606;28;20553;-68
2023/05/22 12:06:54;;;;;;;5.23;3.50;;;33.80;23.90;;;;;;5076432;28;20464;-68
2023/05/22 12:09:22;;;;;;;3.80;3.10;;;33.80;24.10;;;;;;5076591;28;20454;-68
2023/05/22 12:11:49;;;;;;;3.40;3.03;;;33.70;23.70;;;;;;5076664;28;20549;-68
2023/05/22 12:14:17;;;;;;;10.93;3.30;;;33.80;23.90;;;;;;5076387;28;20464;-68
2023/05/22 12:16:44;;;;;;;6.43;3.20;;;34.00;23.50;;;;;;5076359;28;20492;-68
2023/05/22 12:19:12;;;;;;;3.80;3.30;;;34.40;22.30;;;;;;5076722;28;20553;-69
2023/05/22 12:21:40;;;;;;;3.80;3.07;;;34.90;21.40;;;;;;5075873;28;20928;-69
2023/05/22 12:24:08;;;;;;;3.43;3.10;;;35.30;21.10;;;;;;5075668;28;20512;-69
2023/05/22 12:26:35;;;;;;;5.50;4.10;;;35.50;20.10;;;;;;5076283;28;20450;-69
2023/05/22 12:29:04;;;;;;;4.60;3.40;;;35.70;19.80;;;;;;5076296;28;20471;-69
2023/05/22 12:31:37;;;;;;;3.67;3.37;;;36.00;19.20;;;;;;5075647;28;20557;-69
2023/05/22 12:34:06;;;;;;;4.70;2.87;;;36.20;18.60;;;;;;5076022;28;20542;-69
2023/05/22 12:36:38;;;;;;;3.73;3.43;;;36.30;18.40;;;;;;5076082;28;20868;-69
2023/05/22 12:39:08;;;;;;;6.90;6.20;;;36.60;18.20;;;;;;5076123;28;20482;-69
2023/05/22 12:41:34;;;;;;;5.30;4.20;;;36.80;18.20;;;;;;5075672;28;20454;-69
2023/05/22 12:44:02;;;;;;;4.23;2.83;;;37.10;17.40;;;;;;5075598;28;20464;-68
2023/05/22 12:46:30;;;;;;;5.30;3.27;;;37.50;16.50;;;;;;5075758;28;20464;-69
2023/05/22 12:48:58;;;;;;;5.90;3.47;;;37.80;16.20;;;;;;5075767;28;20505;-69
2023/05/22 12:51:28;;;;;;;3.30;3.00;;;38.10;15.60;;;;;;5075745;28;20461;-70